createdAt,value
2018-05-14T00:00:43.765Z,17.80
2018-05-14T00:03:11.267Z,17.80
2018-05-14T00:05:38.735Z,17.80
2018-05-14T00:08:06.234Z,17.80
2018-05-14T00:10:34.111Z,17.70
2018-05-14T00:13:01.670Z,17.80
2018-05-14T00:15:30.366Z,17.70
2018-05-14T00:17:58.305Z,17.70
2018-05-14T00:20:25.913Z,17.70
2018-05-14T00:22:53.482Z,17.60
2018-05-14T00:25:20.992Z,17.60
2018-05-14T00:27:48.469Z,17.50
2018-05-14T00:30:16.066Z,17.50
2018-05-14T00:32:43.619Z,17.30
2018-05-14T00:35:11.603Z,17.20
2018-05-14T00:37:39.507Z,17.20
2018-05-14T00:40:07.047Z,17.20
2018-05-14T00:42:34.571Z,17.20
2018-05-14T00:45:02.159Z,17.30
2018-05-14T00:47:30.129Z,17.20
2018-05-14T00:49:58.029Z,17.20
2018-05-14T00:52:25.598Z,17.20
2018-05-14T00:55:06.116Z,17.30
2018-05-14T00:57:34.164Z,17.30
2018-05-14T01:00:01.651Z,17.30
2018-05-14T01:02:29.174Z,17.30
2018-05-14T01:04:56.915Z,17.30
2018-05-14T01:07:25.018Z,17.30
2018-05-14T01:09:52.526Z,17.30
2018-05-14T01:12:20.436Z,17.20
2018-05-14T01:14:47.928Z,17.20
2018-05-14T01:17:15.436Z,17.20
2018-05-14T01:19:43.027Z,17.20
2018-05-14T01:22:10.577Z,17.20
2018-05-14T01:24:38.478Z,17.10
2018-05-14T01:27:05.980Z,17.10
2018-05-14T01:29:33.503Z,17.10
2018-05-14T01:32:01.043Z,17.10
2018-05-14T01:34:28.591Z,17.10
2018-05-14T01:36:56.494Z,17.10
2018-05-14T01:39:23.983Z,17.10
2018-05-14T01:41:51.489Z,17.00
2018-05-14T01:44:19.452Z,16.90
2018-05-14T01:46:47.330Z,17.00
2018-05-14T01:49:15.251Z,17.00
2018-05-14T01:51:42.758Z,17.00
2018-05-14T01:54:10.236Z,17.00
2018-05-14T01:56:38.136Z,17.10
2018-05-14T01:59:05.651Z,17.10
2018-05-14T02:01:33.132Z,17.10
2018-05-14T02:04:01.065Z,17.10
2018-05-14T02:06:28.554Z,17.10
2018-05-14T02:08:58.034Z,17.10
2018-05-14T02:11:25.513Z,17.10
2018-05-14T02:13:53.006Z,17.10
2018-05-14T02:16:20.876Z,17.10
2018-05-14T02:18:48.854Z,17.10
2018-05-14T02:21:16.822Z,17.10
2018-05-14T02:23:44.762Z,17.10
2018-05-14T02:26:12.281Z,17.10
2018-05-14T02:28:39.828Z,17.10
2018-05-14T02:31:07.516Z,17.10
2018-05-14T02:33:35.060Z,17.10
2018-05-14T02:36:03.012Z,17.10
2018-05-14T02:38:31.264Z,17.10
2018-05-14T02:40:59.118Z,17.10
2018-05-14T02:43:26.650Z,17.10
2018-05-14T02:45:54.539Z,17.10
2018-05-14T02:48:22.072Z,17.10
2018-05-14T02:50:49.979Z,17.10
2018-05-14T02:53:17.596Z,17.10
2018-05-14T02:55:45.093Z,17.10
2018-05-14T02:58:13.752Z,17.10
2018-05-14T03:00:41.648Z,17.10
2018-05-14T03:03:09.228Z,17.10
2018-05-14T03:05:36.723Z,17.10
2018-05-14T03:08:04.316Z,17.10
2018-05-14T03:10:31.846Z,17.10
2018-05-14T03:12:59.390Z,17.10
2018-05-14T03:15:26.898Z,17.00
2018-05-14T03:17:54.492Z,17.10
2018-05-14T03:20:22.390Z,17.00
2018-05-14T03:22:49.924Z,17.10
2018-05-14T03:25:17.912Z,17.00
2018-05-14T03:27:45.422Z,17.00
2018-05-14T03:30:12.987Z,17.00
2018-05-14T03:32:40.502Z,17.00
2018-05-14T03:35:08.040Z,17.00
2018-05-14T03:37:35.636Z,17.00
2018-05-14T03:40:03.329Z,17.00
2018-05-14T03:42:30.873Z,16.90
2018-05-14T03:44:58.397Z,16.90
2018-05-14T03:47:26.387Z,16.90
2018-05-14T03:49:53.885Z,16.90
2018-05-14T03:52:21.386Z,16.90
2018-05-14T03:54:48.936Z,16.90
2018-05-14T03:57:16.415Z,16.90
2018-05-14T03:59:56.042Z,16.90
2018-05-14T04:02:35.389Z,16.90
2018-05-14T04:18:34.539Z,16.80
2018-05-14T04:21:02.017Z,16.80
2018-05-14T04:23:29.487Z,16.80
2018-05-14T04:25:56.957Z,16.80
2018-05-14T04:28:24.897Z,16.80
2018-05-14T04:30:52.428Z,16.80
2018-05-14T04:33:19.934Z,16.80
2018-05-14T04:35:47.488Z,16.80
2018-05-14T04:38:15.059Z,16.80
2018-05-14T04:40:42.548Z,16.80
2018-05-14T04:43:10.473Z,16.80
2018-05-14T04:45:37.942Z,16.80
2018-05-14T04:48:05.415Z,16.80
2018-05-14T04:50:32.897Z,16.80
2018-05-14T04:53:00.771Z,16.80
2018-05-14T04:55:28.243Z,16.80
2018-05-14T04:57:56.731Z,16.90
2018-05-14T05:00:24.679Z,16.90
2018-05-14T05:02:52.149Z,16.90
2018-05-14T05:05:19.618Z,16.90
2018-05-14T05:07:47.536Z,16.90
2018-05-14T05:10:15.023Z,16.90
2018-05-14T05:12:42.483Z,16.90
2018-05-14T05:15:10.057Z,16.90
2018-05-14T05:17:37.625Z,16.90
2018-05-14T05:20:05.151Z,17.00
2018-05-14T05:22:32.625Z,17.00
2018-05-14T05:25:00.097Z,17.00
2018-05-14T05:27:27.566Z,17.10
2018-05-14T05:29:55.024Z,17.10
2018-05-14T05:32:22.544Z,17.10
2018-05-14T05:34:50.500Z,17.10
2018-05-14T05:37:18.447Z,17.20
2018-05-14T05:39:45.912Z,17.20
2018-05-14T05:42:13.373Z,17.20
2018-05-14T05:44:40.871Z,17.20
2018-05-14T05:47:08.807Z,17.20
2018-05-14T05:49:36.276Z,17.20
2018-05-14T05:52:03.749Z,17.30
2018-05-14T05:54:31.333Z,17.30
2018-05-14T05:56:58.848Z,17.30
2018-05-14T05:59:26.425Z,17.30
2018-05-14T06:01:53.886Z,17.30
2018-05-14T06:04:21.456Z,17.30
2018-05-14T06:06:48.904Z,17.30
2018-05-14T06:09:16.433Z,17.30
2018-05-14T06:11:43.934Z,17.30
2018-05-14T06:14:11.393Z,17.30
2018-05-14T06:16:38.865Z,17.30
2018-05-14T06:19:06.350Z,17.30
2018-05-14T06:21:34.313Z,17.40
2018-05-14T06:24:01.771Z,17.40
2018-05-14T06:26:30.100Z,17.40
2018-05-14T06:28:57.563Z,17.40
2018-05-14T06:31:25.021Z,17.40
2018-05-14T06:33:52.508Z,17.40
2018-05-14T06:36:19.972Z,17.40
2018-05-14T06:38:47.455Z,17.40
2018-05-14T06:41:15.028Z,17.40
2018-05-14T06:43:42.580Z,17.50
2018-05-14T06:46:10.116Z,17.50
2018-05-14T06:48:37.586Z,17.50
2018-05-14T06:51:05.066Z,17.50
2018-05-14T06:53:32.525Z,17.50
2018-05-14T06:56:00.114Z,17.50
2018-05-14T06:58:27.979Z,17.50
2018-05-14T07:00:55.446Z,17.60
2018-05-14T07:03:23.365Z,17.60
2018-05-14T07:05:50.882Z,17.60
2018-05-14T07:08:18.752Z,17.70
2018-05-14T07:10:46.324Z,17.70
2018-05-14T07:13:14.179Z,17.80
2018-05-14T07:15:42.529Z,17.80
2018-05-14T07:18:09.981Z,17.90
2018-05-14T07:20:37.444Z,17.90
2018-05-14T07:23:04.957Z,18.00
2018-05-14T07:25:32.529Z,18.10
2018-05-14T07:28:00.389Z,18.20
2018-05-14T07:30:27.940Z,18.20
2018-05-14T07:32:55.412Z,18.20
2018-05-14T07:35:23.622Z,18.30
2018-05-14T07:37:51.114Z,18.30
2018-05-14T07:40:18.595Z,18.30
2018-05-14T07:42:46.060Z,18.30
2018-05-14T07:45:13.620Z,18.30
2018-05-14T07:47:44.066Z,18.30
2018-05-14T07:50:11.569Z,18.40
2018-05-14T07:52:39.047Z,18.30
2018-05-14T07:55:06.539Z,18.30
2018-05-14T07:57:34.081Z,18.30
2018-05-14T08:00:01.624Z,18.30
2018-05-14T08:02:29.204Z,18.40
2018-05-14T08:04:57.046Z,18.40
2018-05-14T08:07:24.476Z,18.50
2018-05-14T08:09:53.190Z,18.50
2018-05-14T08:12:21.019Z,18.60
2018-05-14T08:14:48.540Z,18.60
2018-05-14T08:17:16.066Z,18.60
2018-05-14T08:19:43.668Z,18.60
2018-05-14T08:22:11.198Z,18.70
2018-05-14T08:24:38.722Z,18.70
2018-05-14T08:27:06.209Z,18.80
2018-05-14T08:29:33.751Z,18.80
2018-05-14T08:32:01.230Z,18.80
2018-05-14T08:34:28.717Z,18.80
2018-05-14T08:36:56.297Z,18.80
2018-05-14T08:39:23.813Z,18.80
2018-05-14T08:41:51.321Z,18.80
2018-05-14T08:44:18.908Z,18.80
2018-05-14T08:46:46.651Z,18.80
2018-05-14T08:49:14.003Z,18.80
2018-05-14T08:51:41.506Z,18.80
2018-05-14T08:54:09.062Z,18.80
2018-05-14T08:56:36.482Z,18.80
2018-05-14T08:59:03.996Z,18.80
2018-05-14T09:01:31.662Z,18.80
2018-05-14T09:03:59.155Z,18.80
2018-05-14T09:06:26.635Z,18.80
2018-05-14T09:08:54.257Z,18.90
2018-05-14T09:11:21.638Z,19.00
2018-05-14T09:13:49.268Z,19.00
2018-05-14T09:16:17.173Z,19.10
2018-05-14T09:18:44.671Z,19.10
2018-05-14T09:21:12.145Z,19.20
2018-05-14T09:23:39.642Z,19.20
2018-05-14T09:26:07.137Z,19.20
2018-05-14T09:28:34.632Z,19.20
2018-05-14T09:31:02.130Z,19.20
2018-05-14T09:33:29.614Z,19.20
2018-05-14T09:35:57.101Z,19.10
2018-05-14T09:38:24.659Z,19.10
2018-05-14T09:40:52.151Z,19.10
2018-05-14T09:43:19.724Z,19.00
2018-05-14T09:45:47.597Z,19.00
2018-05-14T09:48:15.550Z,19.00
2018-05-14T09:50:43.152Z,19.00
2018-05-14T09:53:10.709Z,18.90
2018-05-14T09:55:38.247Z,18.90
2018-05-14T09:58:05.709Z,18.80
2018-05-14T10:00:33.284Z,18.80
2018-05-14T10:03:01.272Z,18.70
2018-05-14T10:05:28.822Z,18.70
2018-05-14T10:07:56.312Z,18.70
2018-05-14T10:10:23.908Z,18.70
2018-05-14T10:12:51.381Z,18.70
2018-05-14T10:15:18.927Z,18.60
2018-05-14T10:17:46.436Z,18.70
2018-05-14T10:20:14.310Z,18.70
2018-05-14T10:22:43.401Z,18.70
2018-05-14T10:25:10.900Z,18.70
2018-05-14T10:27:38.419Z,18.70
2018-05-14T10:30:05.955Z,18.70
2018-05-14T10:32:33.436Z,18.70
2018-05-14T10:35:00.932Z,18.70
2018-05-14T10:37:28.818Z,18.70
2018-05-14T10:39:56.756Z,18.70
2018-05-14T10:42:24.353Z,18.70
2018-05-14T10:44:51.890Z,18.70
2018-05-14T10:47:19.442Z,18.60
2018-05-14T10:49:47.159Z,18.70
2018-05-14T10:52:14.725Z,18.70
2018-05-14T10:54:42.238Z,18.70
2018-05-14T10:57:09.720Z,18.80
2018-05-14T10:59:37.300Z,18.80
2018-05-14T11:02:05.243Z,18.90
2018-05-14T11:04:32.716Z,18.90
2018-05-14T11:07:00.262Z,19.00
2018-05-14T11:09:27.743Z,19.00
2018-05-14T11:11:55.304Z,19.10
2018-05-14T11:14:22.871Z,19.20
2018-05-14T11:16:50.429Z,19.30
2018-05-14T11:19:17.936Z,19.30
2018-05-14T11:21:45.923Z,19.40
2018-05-14T11:24:13.795Z,19.40
2018-05-14T11:26:42.063Z,19.40
2018-05-14T11:29:09.826Z,19.40
2018-05-14T11:31:37.394Z,19.40
2018-05-14T11:34:04.973Z,19.40
2018-05-14T11:36:32.530Z,19.40
2018-05-14T11:39:00.180Z,19.30
2018-05-14T11:41:28.420Z,19.40
2018-05-14T11:43:56.347Z,19.30
2018-05-14T11:46:24.450Z,19.30
2018-05-14T11:48:52.040Z,19.30
2018-05-14T11:51:19.648Z,19.40
2018-05-14T11:53:47.320Z,19.40
2018-05-14T11:56:14.881Z,19.50
2018-05-14T11:58:42.417Z,19.60
2018-05-14T12:01:11.559Z,19.70
2018-05-14T12:03:39.184Z,19.70
2018-05-14T12:06:07.229Z,19.80
2018-05-14T12:08:34.949Z,19.80
2018-05-14T12:11:02.505Z,19.90
2018-05-14T12:13:31.094Z,20.20
2018-05-14T12:15:59.273Z,20.10
2018-05-14T12:18:27.574Z,20.30
2018-05-14T12:20:55.088Z,20.40
2018-05-14T12:23:22.594Z,20.50
2018-05-14T12:25:50.138Z,20.60
2018-05-14T12:28:17.648Z,20.70
2018-05-14T12:30:45.223Z,20.70
2018-05-14T12:33:12.740Z,20.80
2018-05-14T12:35:40.311Z,20.80
2018-05-14T12:38:07.882Z,20.90
2018-05-14T12:40:35.478Z,20.90
2018-05-14T12:43:03.033Z,21.00
2018-05-14T12:45:30.545Z,21.00
2018-05-14T12:47:58.470Z,21.00
2018-05-14T12:50:26.001Z,21.00
2018-05-14T12:52:53.561Z,21.10
2018-05-14T12:55:21.167Z,21.20
2018-05-14T12:57:48.775Z,21.20
2018-05-14T13:00:17.377Z,21.30
2018-05-14T13:02:44.925Z,21.30
2018-05-14T13:05:12.839Z,21.50
2018-05-14T13:07:40.858Z,21.50
2018-05-14T13:10:08.357Z,21.60
2018-05-14T13:12:35.935Z,21.60
2018-05-14T13:15:03.508Z,21.70
2018-05-14T13:17:31.068Z,21.70
2018-05-14T13:19:58.726Z,21.80
2018-05-14T13:22:26.989Z,21.90
2018-05-14T13:24:54.917Z,21.90
2018-05-14T13:27:22.539Z,22.00
2018-05-14T13:29:50.315Z,22.10
2018-05-14T13:32:17.964Z,22.20
2018-05-14T13:34:45.541Z,22.30
2018-05-14T13:37:13.127Z,22.30
2018-05-14T13:39:40.676Z,22.40
2018-05-14T13:42:08.244Z,22.40
2018-05-14T13:44:35.966Z,22.60
2018-05-14T13:47:03.483Z,22.60
2018-05-14T13:49:31.020Z,22.60
2018-05-14T13:51:59.503Z,22.80
2018-05-14T13:54:26.993Z,22.90
2018-05-14T13:56:54.964Z,23.00
2018-05-14T13:59:22.520Z,23.20
2018-05-14T14:01:50.103Z,23.30
2018-05-14T14:04:17.657Z,23.30
2018-05-14T14:06:45.286Z,23.40
2018-05-14T14:09:13.381Z,23.40
2018-05-14T14:11:41.260Z,23.40
2018-05-14T14:14:09.015Z,23.50
2018-05-14T14:16:37.046Z,23.60
2018-05-14T14:19:04.673Z,23.60
2018-05-14T14:21:32.757Z,23.60
2018-05-14T14:24:00.525Z,23.60
2018-05-14T14:26:28.751Z,23.30
2018-05-14T14:28:56.333Z,23.30
2018-05-14T14:31:24.202Z,22.70
2018-05-14T14:33:52.141Z,22.30
2018-05-14T14:36:19.733Z,22.30
2018-05-14T14:38:47.161Z,21.90
2018-05-14T14:41:14.668Z,21.60
2018-05-14T14:43:42.573Z,21.20
2018-05-14T14:46:10.095Z,21.20
2018-05-14T14:48:37.627Z,21.00
2018-05-14T14:51:05.114Z,20.90
2018-05-14T14:53:32.724Z,20.80
2018-05-14T14:56:00.194Z,20.60
2018-05-14T14:58:27.758Z,20.50
2018-05-14T15:00:55.652Z,20.40
2018-05-14T15:03:23.280Z,20.40
2018-05-14T15:05:50.929Z,20.30
2018-05-14T15:08:19.460Z,20.20
2018-05-14T15:10:47.105Z,20.20
2018-05-14T15:13:14.784Z,20.10
2018-05-14T15:15:42.541Z,20.10
2018-05-14T15:18:10.191Z,20.00
2018-05-14T15:20:38.758Z,19.90
2018-05-14T15:23:07.065Z,19.80
2018-05-14T15:25:35.438Z,19.70
2018-05-14T15:28:04.213Z,19.60
2018-05-14T15:30:33.007Z,19.60
2018-05-14T15:33:01.680Z,19.60
2018-05-14T15:35:33.472Z,19.50
2018-05-14T15:38:02.328Z,19.40
2018-05-14T15:40:31.315Z,19.30
2018-05-14T15:42:59.667Z,19.30
2018-05-14T15:45:28.045Z,19.30
2018-05-14T15:47:56.666Z,19.30
2018-05-14T15:50:25.374Z,19.20
2018-05-14T15:52:53.829Z,19.10
2018-05-14T15:55:22.125Z,19.10
2018-05-14T15:57:51.141Z,19.10
2018-05-14T16:00:19.899Z,19.00
2018-05-14T16:02:48.330Z,19.00
2018-05-14T16:05:16.756Z,19.00
2018-05-14T16:07:45.031Z,19.10
2018-05-14T16:10:13.496Z,19.00
2018-05-14T16:12:43.374Z,19.00
2018-05-14T16:15:11.834Z,19.00
2018-05-14T16:17:40.352Z,19.00
2018-05-14T16:20:09.641Z,19.00
2018-05-14T16:22:39.094Z,19.00
2018-05-14T16:25:07.544Z,19.00
2018-05-14T16:27:36.652Z,19.00
2018-05-14T16:30:05.209Z,19.00
2018-05-14T16:32:33.876Z,19.10
2018-05-14T16:35:03.192Z,19.10
2018-05-14T16:37:33.757Z,19.10
2018-05-14T16:40:02.544Z,19.10
2018-05-14T16:42:31.430Z,19.20
2018-05-14T16:45:00.121Z,19.20
2018-05-14T16:47:28.350Z,19.20
2018-05-14T16:49:57.005Z,19.20
2018-05-14T16:52:26.620Z,19.20
2018-05-14T16:54:55.224Z,19.20
2018-05-14T16:57:23.908Z,19.20
2018-05-14T16:59:53.160Z,19.30
2018-05-14T17:02:22.125Z,19.30
2018-05-14T17:04:51.040Z,19.30
2018-05-14T17:07:19.688Z,19.30
2018-05-14T17:09:48.273Z,19.30
2018-05-14T17:12:17.055Z,19.30
2018-05-14T17:14:46.565Z,19.30
2018-05-14T17:17:15.180Z,19.30
2018-05-14T17:19:43.586Z,19.30
2018-05-14T17:22:11.626Z,19.30
2018-05-14T17:37:48.221Z,19.70
2018-05-14T17:40:16.582Z,19.70
2018-05-14T17:42:45.348Z,19.70
2018-05-14T17:45:14.095Z,19.60
2018-05-14T17:47:43.141Z,19.60
2018-05-14T17:50:11.371Z,19.60
2018-05-14T17:52:40.373Z,19.50
2018-05-14T17:55:08.981Z,19.50
2018-05-14T17:57:37.971Z,19.50
2018-05-14T18:00:07.271Z,19.40
2018-05-14T18:02:35.846Z,19.40
2018-05-14T18:05:04.559Z,19.40
2018-05-14T18:07:33.142Z,19.50
2018-05-14T18:10:01.927Z,19.40
2018-05-14T18:12:32.057Z,19.50
2018-05-14T18:15:00.906Z,19.40
2018-05-14T18:17:29.477Z,19.40
2018-05-14T18:20:03.226Z,19.40
2018-05-14T18:22:31.519Z,19.40
2018-05-14T18:25:06.322Z,19.40
2018-05-14T18:27:35.131Z,19.40
2018-05-14T18:30:09.241Z,19.40
2018-05-14T18:32:40.655Z,19.40
2018-05-14T18:35:14.718Z,19.40
2018-05-14T18:37:43.246Z,19.40
2018-05-14T18:40:11.706Z,19.30
2018-05-14T18:42:40.777Z,19.30
2018-05-14T18:45:09.166Z,19.30
2018-05-14T18:47:37.752Z,19.30
2018-05-14T18:50:06.127Z,19.30
2018-05-14T18:52:35.105Z,19.30
2018-05-14T18:55:03.708Z,19.20
2018-05-14T18:57:32.562Z,19.20
2018-05-14T19:00:01.683Z,19.20
2018-05-14T19:02:30.563Z,19.10
2018-05-14T19:04:59.379Z,19.10
2018-05-14T19:07:27.881Z,19.10
2018-05-14T19:09:56.675Z,19.10
2018-05-14T19:12:25.250Z,19.00
2018-05-14T19:14:59.390Z,19.00
2018-05-14T19:17:33.732Z,19.00
2018-05-14T19:20:02.313Z,18.90
2018-05-14T19:36:00.199Z,18.60
2018-05-14T19:38:28.743Z,18.60
2018-05-14T19:40:57.659Z,18.50
2018-05-14T19:43:26.571Z,18.50
2018-05-14T19:45:55.672Z,18.40
2018-05-14T19:48:23.909Z,18.40
2018-05-14T19:50:52.503Z,18.30
2018-05-14T19:53:21.473Z,18.30
2018-05-14T19:55:50.156Z,18.20
2018-05-14T19:58:18.808Z,18.20
2018-05-14T20:00:47.226Z,18.20
2018-05-14T20:03:16.177Z,18.10
2018-05-14T20:05:45.137Z,18.00
2018-05-14T20:08:13.245Z,18.00
2018-05-14T20:10:41.530Z,17.90
2018-05-14T20:13:10.638Z,17.90
2018-05-14T20:15:42.026Z,17.80
2018-05-14T20:18:10.571Z,17.80
2018-05-14T20:20:39.581Z,17.70
2018-05-14T20:23:07.647Z,17.70
2018-05-14T20:25:35.956Z,17.70
2018-05-14T20:28:05.277Z,17.60
2018-05-14T20:30:33.863Z,17.60
2018-05-14T20:33:02.383Z,17.50
2018-05-14T20:35:30.900Z,17.50
2018-05-14T20:37:59.208Z,17.50
2018-05-14T20:40:28.205Z,17.40
2018-05-14T20:42:56.924Z,17.40
2018-05-14T20:45:25.373Z,17.30
2018-05-14T20:47:53.913Z,17.30
2018-05-14T20:50:22.654Z,17.30
2018-05-14T20:52:50.430Z,17.20
2018-05-14T20:55:19.592Z,17.20
2018-05-14T20:57:48.067Z,17.20
2018-05-14T21:00:17.223Z,17.20
2018-05-14T21:02:45.822Z,17.10
2018-05-14T21:05:14.732Z,17.10
2018-05-14T21:07:43.619Z,17.10
2018-05-14T21:10:12.380Z,17.00
2018-05-14T21:12:40.920Z,17.10
2018-05-14T21:15:09.385Z,17.00
2018-05-14T21:17:37.749Z,17.00
2018-05-14T21:20:06.212Z,16.90
2018-05-14T21:22:36.046Z,16.90
2018-05-14T21:25:04.830Z,16.90
2018-05-14T21:27:33.410Z,16.90
2018-05-14T21:30:01.966Z,16.90
2018-05-14T21:32:30.276Z,16.90
2018-05-14T21:34:59.300Z,16.90
2018-05-14T21:37:27.613Z,16.90
2018-05-14T21:39:55.816Z,17.00
2018-05-14T21:42:24.022Z,16.90
2018-05-14T21:44:52.323Z,17.00
2018-05-14T21:47:20.992Z,16.90
2018-05-14T21:49:49.804Z,17.00
2018-05-14T21:52:19.190Z,16.90
2018-05-14T21:54:47.827Z,16.90
2018-05-14T21:57:15.935Z,16.90
2018-05-14T21:59:44.915Z,16.90
2018-05-14T22:02:13.113Z,16.90
2018-05-14T22:04:41.677Z,17.00
2018-05-14T22:07:10.247Z,17.00
2018-05-14T22:09:39.087Z,17.00
2018-05-14T22:12:08.363Z,17.00
2018-05-14T22:14:36.787Z,17.00
2018-05-14T22:17:06.388Z,17.00
2018-05-14T22:19:34.862Z,17.10
2018-05-14T22:22:03.280Z,17.10
2018-05-14T22:24:31.211Z,17.10
2018-05-14T22:26:59.454Z,17.10
2018-05-14T22:29:27.425Z,17.10
2018-05-14T22:31:55.983Z,17.10
2018-05-14T22:34:24.568Z,17.10
2018-05-14T22:36:52.375Z,17.10
2018-05-14T22:39:20.606Z,17.00
2018-05-14T22:41:49.210Z,17.00
2018-05-14T22:44:18.025Z,17.00
2018-05-14T22:46:47.335Z,16.90
2018-05-14T22:49:15.474Z,16.90
2018-05-14T22:51:44.245Z,16.90
2018-05-14T22:54:12.772Z,16.80
2018-05-14T22:56:41.562Z,16.80
2018-05-14T22:59:10.000Z,16.80
2018-05-14T23:01:38.034Z,16.90
2018-05-14T23:04:06.292Z,16.80
2018-05-14T23:06:34.895Z,16.80
2018-05-14T23:09:03.466Z,16.80
2018-05-14T23:11:32.035Z,16.80
2018-05-14T23:14:00.797Z,16.80
2018-05-14T23:16:29.512Z,16.70
2018-05-14T23:18:58.106Z,16.80
2018-05-14T23:21:27.078Z,16.70
2018-05-14T23:23:55.103Z,16.70
2018-05-14T23:26:23.422Z,16.70
2018-05-14T23:28:52.171Z,16.70
2018-05-14T23:31:21.144Z,16.70
2018-05-14T23:33:50.300Z,16.80
2018-05-14T23:36:18.694Z,16.80
2018-05-14T23:38:47.165Z,16.80
2018-05-14T23:41:15.848Z,16.90
2018-05-14T23:43:44.833Z,16.90
2018-05-14T23:46:13.764Z,16.90
2018-05-14T23:48:42.309Z,16.90
2018-05-14T23:51:10.549Z,16.80
2018-05-14T23:53:39.093Z,16.80
2018-05-14T23:56:07.602Z,16.80
2018-05-14T23:58:36.497Z,16.70
